This is the latest recevied weather packets stored in our database for station/object PA2JOK. If no packets are shown the sender has not sent any weather packets the latest 10 day(s).
| Time | Temp. | Humidity | Pressure | Rain* | Wind** | Luminosity | Snow |
|---|---|---|---|---|---|---|---|
| 1778056383 | 11.67° C | 61% | 1008.5 hPa | 0 mm | - | - | - |
| 1778055483 | 12.22° C | 66% | 1008.3 hPa | 0 mm | - | - | - |
| 1778054583 | 12.22° C | 68% | 1008.2 hPa | 0 mm | - | - | - |
| 1778053683 | 12.22° C | 71% | 1008.1 hPa | 0 mm | - | - | - |
| 1778052783 | 11.67° C | 72% | 1008.2 hPa | 0 mm | - | - | - |
| 1778051883 | 11.11° C | 74% | 1008.2 hPa | 0 mm | - | - | - |
| 1778050983 | 10.56° C | 75% | 1008.3 hPa | 0 mm | - | - | - |
| 1778050083 | 10.56° C | 76% | 1008 hPa | 0 mm | - | - | - |
| 1778049183 | 10.56° C | 78% | 1008 hPa | 0 mm | - | - | - |
| 1778048283 | 10° C | 80% | 1007.9 hPa | 0 mm | - | - | - |
| 1778047383 | 10° C | 80% | 1007.9 hPa | 0 mm | - | - | - |
| 1778046483 | 10° C | 80% | 1007.9 hPa | 0 mm | - | - | - |
| 1778045583 | 10° C | 80% | 1008 hPa | 0 mm | - | - | - |
| 1778044683 | 9.44° C | 79% | 1007.9 hPa | 0 mm | - | - | - |
| 1778043783 | 9.44° C | 78% | 1008.1 hPa | 0 mm | - | - | - |
| 1778042883 | 9.44° C | 78% | 1008 hPa | 0 mm | - | - | - |
| 1778041983 | 8.89° C | 78% | 1008 hPa | 0 mm | - | - | - |
| 1778041083 | 8.89° C | 78% | 1008 hPa | 0 mm | - | - | - |
| 1778040182 | 8.89° C | 78% | 1008.1 hPa | 0 mm | - | - | - |
| 1778039283 | 8.89° C | 78% | 1008.1 hPa | 0 mm | - | - | - |
| 1778038383 | 8.89° C | 78% | 1008.3 hPa | 0 mm | - | - | - |
| 1778037483 | 8.89° C | 77% | 1008.4 hPa | 0 mm | - | - | - |
| 1778036583 | 8.89° C | 76% | 1008.4 hPa | 0 mm | - | - | - |
| 1778035683 | 8.89° C | 75% | 1008.5 hPa | 0 mm | - | - | - |
| 1778034782 | 8.89° C | 75% | 1008.6 hPa | 0 mm | - | - | - |
* Rain latest hour (hover to see other rain measurements)
** Current wind speed in m/s (hover to see current wind gust speed)